createdAt,value
2022-09-20T00:02:35.025Z,95
2022-09-20T00:12:35.156Z,95
2022-09-20T00:22:35.551Z,95
2022-09-20T00:32:35.853Z,95
2022-09-20T00:42:36.078Z,95
2022-09-20T00:52:36.486Z,95
2022-09-20T01:02:37.051Z,95
2022-09-20T01:12:37.726Z,96
2022-09-20T01:32:38.364Z,96
2022-09-20T01:42:39.309Z,96
2022-09-20T02:02:40.501Z,96
2022-09-20T02:12:41.401Z,97
2022-09-20T02:22:42.303Z,96
2022-09-20T02:42:44.395Z,97
2022-09-20T02:52:44.890Z,97
2022-09-20T03:12:46.793Z,97
2022-09-20T03:22:47.528Z,97
2022-09-20T03:32:48.570Z,97
2022-09-20T03:42:49.404Z,98
2022-09-20T03:52:49.706Z,98
2022-09-20T04:02:50.320Z,98
2022-09-20T04:12:51.162Z,98
2022-09-20T04:22:51.806Z,98
2022-09-20T04:32:52.833Z,98
2022-09-20T04:42:53.620Z,98
2022-09-20T04:52:54.730Z,99
2022-09-20T05:12:56.161Z,99
2022-09-20T05:22:56.689Z,99
2022-09-20T05:32:57.485Z,99
2022-09-20T05:42:58.561Z,99
2022-09-20T05:52:59.251Z,99
2022-09-20T06:13:00.434Z,99
2022-09-20T06:23:01.255Z,100
2022-09-20T06:33:01.983Z,100
2022-09-20T06:43:02.395Z,100
2022-09-20T06:53:03.479Z,100
2022-09-20T07:03:03.823Z,100
2022-09-20T07:13:04.555Z,100
2022-09-20T07:23:05.019Z,100
2022-09-20T07:33:05.794Z,100
2022-09-20T07:43:06.352Z,99
2022-09-20T07:53:06.650Z,99
2022-09-20T08:03:06.856Z,99
2022-09-20T08:23:22.815Z,98
2022-09-20T08:43:08.321Z,98
2022-09-20T09:03:08.768Z,96
2022-09-20T09:33:09.500Z,91
2022-09-20T09:43:10.443Z,89
2022-09-20T09:53:10.549Z,84
2022-09-20T10:03:11.179Z,83
2022-09-20T10:13:12.000Z,82
2022-09-20T10:23:45.375Z,79
2022-09-20T10:33:13.213Z,76
2022-09-20T10:43:13.752Z,77
2022-09-20T10:53:14.192Z,79
2022-09-20T11:23:15.898Z,75
2022-09-20T11:43:17.316Z,71
2022-09-20T11:53:17.724Z,73
2022-09-20T12:03:18.206Z,73
2022-09-20T12:13:18.293Z,73
2022-09-20T12:23:19.311Z,72
2022-09-20T12:33:19.701Z,72
2022-09-20T12:43:19.992Z,74
2022-09-20T13:03:22.002Z,74
2022-09-20T13:13:22.907Z,74
2022-09-20T13:23:23.347Z,74
2022-09-20T13:33:23.982Z,74
2022-09-20T13:43:25.132Z,75
2022-09-20T13:53:40.906Z,75
2022-09-20T14:03:26.168Z,76
2022-09-20T14:13:26.310Z,77
2022-09-20T14:23:27.312Z,76
2022-09-20T14:33:28.336Z,75
2022-09-20T14:43:28.505Z,73
2022-09-20T14:53:28.618Z,71
2022-09-20T15:03:28.802Z,71
2022-09-20T15:13:29.161Z,73
2022-09-20T15:23:30.200Z,76
2022-09-20T15:33:30.860Z,77
2022-09-20T15:43:31.480Z,78
2022-09-20T15:53:32.123Z,78
2022-09-20T16:03:33.166Z,78
2022-09-20T16:13:33.298Z,79
2022-09-20T16:23:33.884Z,79
2022-09-20T16:33:34.446Z,78
2022-09-20T16:43:35.179Z,79
2022-09-20T16:53:35.446Z,79
2022-09-20T17:13:36.290Z,81
2022-09-20T17:23:36.513Z,81
2022-09-20T17:33:36.774Z,82
2022-09-20T17:43:37.065Z,84
2022-09-20T17:53:37.937Z,84
2022-09-20T18:03:38.651Z,85
2022-09-20T18:13:39.345Z,86
2022-09-20T18:23:39.875Z,87
2022-09-20T18:33:40.108Z,87
2022-09-20T18:43:40.635Z,88
2022-09-20T18:53:41.403Z,89
2022-09-20T19:03:41.559Z,89
2022-09-20T19:13:42.004Z,89
2022-09-20T19:23:42.198Z,90
2022-09-20T19:33:42.680Z,90
2022-09-20T19:43:43.605Z,91
2022-09-20T19:53:44.374Z,91
2022-09-20T20:03:46.686Z,91
2022-09-20T20:13:44.925Z,92
2022-09-20T20:23:46.005Z,92
2022-09-20T20:33:46.696Z,93
2022-09-20T21:13:49.272Z,93
2022-09-20T21:33:50.615Z,94
2022-09-20T21:43:51.512Z,94
2022-09-20T21:53:51.610Z,94
2022-09-20T22:03:52.391Z,94
2022-09-20T22:13:53.288Z,95
2022-09-20T22:33:54.465Z,95
2022-09-20T22:43:54.576Z,95
2022-09-20T23:03:55.379Z,95
2022-09-20T23:13:55.422Z,96
2022-09-20T23:33:55.751Z,96
2022-09-20T23:53:57.197Z,96
